sensor_id;sensor_type;location;lat;lon;timestamp;pressure;altitude;pressure_sealevel;temperature;humidity
50684;BME280;36654;45.042;38.994;2022-10-16T00:01:27;101702.41;;;11.27;58.29
50684;BME280;36654;45.042;38.994;2022-10-16T00:03:54;101699.69;;;11.26;58.38
50684;BME280;36654;45.042;38.994;2022-10-16T00:06:21;101705.94;;;11.26;58.50
50684;BME280;36654;45.042;38.994;2022-10-16T00:08:48;101703.19;;;11.23;58.73
50684;BME280;36654;45.042;38.994;2022-10-16T00:11:19;101706.75;;;11.23;58.60
50684;BME280;36654;45.042;38.994;2022-10-16T00:13:46;101711.13;;;11.23;58.72
50684;BME280;36654;45.042;38.994;2022-10-16T00:16:13;101626.91;;;10.76;58.57
50684;BME280;36654;45.042;38.994;2022-10-16T00:18:39;101722.56;;;11.20;58.83
50684;BME280;36654;45.042;38.994;2022-10-16T00:21:10;101698.50;;;11.13;58.74
50684;BME280;36654;45.042;38.994;2022-10-16T00:23:37;101713.72;;;11.18;58.86
50684;BME280;36654;45.042;38.994;2022-10-16T00:26:06;101718.19;;;11.21;59.03
50684;BME280;36654;45.042;38.994;2022-10-16T00:28:32;101724.31;;;11.18;58.97
50684;BME280;36654;45.042;38.994;2022-10-16T00:30:58;101694.84;;;11.08;58.93
50684;BME280;36654;45.042;38.994;2022-10-16T00:33:24;101714.59;;;11.19;58.75
50684;BME280;36654;45.042;38.994;2022-10-16T00:35:50;101641.03;;;10.77;59.04
50684;BME280;36654;45.042;38.994;2022-10-16T00:38:16;101648.31;;;10.84;58.97
50684;BME280;36654;45.042;38.994;2022-10-16T00:40:42;101726.94;;;11.17;58.96
50684;BME280;36654;45.042;38.994;2022-10-16T00:43:39;101696.72;;;11.12;59.15
50684;BME280;36654;45.042;38.994;2022-10-16T00:46:21;101716.31;;;11.17;59.18
50684;BME280;36654;45.042;38.994;2022-10-16T00:51:29;101680.38;;;10.93;59.27
50684;BME280;36654;45.042;38.994;2022-10-16T00:53:56;101713.47;;;11.09;59.08
50684;BME280;36654;45.042;38.994;2022-10-16T00:56:22;101719.66;;;11.10;59.53
50684;BME280;36654;45.042;38.994;2022-10-16T00:58:48;101655.06;;;10.73;59.48
50684;BME280;36654;45.042;38.994;2022-10-16T01:01:13;101704.19;;;10.92;59.63
50684;BME280;36654;45.042;38.994;2022-10-16T01:03:39;101699.72;;;10.89;59.46
50684;BME280;36654;45.042;38.994;2022-10-16T01:11:33;101726.63;;;11.05;59.38
50684;BME280;36654;45.042;38.994;2022-10-16T01:14:14;101650.25;;;10.56;59.43
50684;BME280;36654;45.042;38.994;2022-10-16T01:16:49;101747.72;;;10.98;59.37
50684;BME280;36654;45.042;38.994;2022-10-16T01:19:23;101726.38;;;10.95;59.22
50684;BME280;36654;45.042;38.994;2022-10-16T01:21:53;101735.13;;;10.91;59.23
50684;BME280;36654;45.042;38.994;2022-10-16T01:27:10;101729.66;;;10.85;59.33
50684;BME280;36654;45.042;38.994;2022-10-16T01:35:00;101728.50;;;10.74;59.22
50684;BME280;36654;45.042;38.994;2022-10-16T01:37:36;101750.59;;;10.74;59.45
50684;BME280;36654;45.042;38.994;2022-10-16T01:40:07;101740.75;;;10.69;59.42
50684;BME280;36654;45.042;38.994;2022-10-16T01:42:39;101745.19;;;10.70;59.44
50684;BME280;36654;45.042;38.994;2022-10-16T01:45:11;101738.72;;;10.60;59.58
50684;BME280;36654;45.042;38.994;2022-10-16T01:47:39;101745.03;;;10.64;59.60
50684;BME280;36654;45.042;38.994;2022-10-16T01:50:06;101711.94;;;10.49;59.74
50684;BME280;36654;45.042;38.994;2022-10-16T01:52:36;101743.09;;;10.58;59.86
50684;BME280;36654;45.042;38.994;2022-10-16T01:55:06;101733.28;;;10.55;59.96
50684;BME280;36654;45.042;38.994;2022-10-16T01:57:36;101733.22;;;10.52;60.05
50684;BME280;36654;45.042;38.994;2022-10-16T02:00:07;101728.53;;;10.42;60.23
50684;BME280;36654;45.042;38.994;2022-10-16T02:02:34;101725.88;;;10.42;60.19
50684;BME280;36654;45.042;38.994;2022-10-16T02:07:44;101734.78;;;10.44;60.44
50684;BME280;36654;45.042;38.994;2022-10-16T02:10:10;101749.72;;;10.42;60.54
50684;BME280;36654;45.042;38.994;2022-10-16T02:12:38;101688.91;;;10.17;60.52
50684;BME280;36654;45.042;38.994;2022-10-16T02:15:06;101748.91;;;10.45;60.72
50684;BME280;36654;45.042;38.994;2022-10-16T02:17:32;101744.34;;;10.39;60.89
50684;BME280;36654;45.042;38.994;2022-10-16T02:19:59;101759.38;;;10.40;61.13
50684;BME280;36654;45.042;38.994;2022-10-16T02:22:36;101740.59;;;10.31;61.23
50684;BME280;36654;45.042;38.994;2022-10-16T02:25:20;101738.59;;;10.24;61.62
50684;BME280;36654;45.042;38.994;2022-10-16T02:30:36;101742.44;;;10.33;61.90
50684;BME280;36654;45.042;38.994;2022-10-16T02:33:07;101657.03;;;9.82;62.04
50684;BME280;36654;45.042;38.994;2022-10-16T02:35:35;101738.84;;;10.33;61.99
50684;BME280;36654;45.042;38.994;2022-10-16T02:38:02;101779.47;;;10.32;62.32
50684;BME280;36654;45.042;38.994;2022-10-16T02:40:28;101753.69;;;10.26;62.38
50684;BME280;36654;45.042;38.994;2022-10-16T02:42:55;101740.47;;;10.28;62.62
50684;BME280;36654;45.042;38.994;2022-10-16T02:45:21;101759.09;;;10.29;62.72
50684;BME280;36654;45.042;38.994;2022-10-16T02:47:47;101756.38;;;10.28;62.67
50684;BME280;36654;45.042;38.994;2022-10-16T02:50:13;101751.09;;;10.28;63.15
50684;BME280;36654;45.042;38.994;2022-10-16T02:52:39;101761.63;;;10.26;63.06
50684;BME280;36654;45.042;38.994;2022-10-16T02:55:05;101750.84;;;10.20;63.40
50684;BME280;36654;45.042;38.994;2022-10-16T02:57:31;101750.88;;;10.22;63.50
50684;BME280;36654;45.042;38.994;2022-10-16T02:59:57;101765.16;;;10.27;63.55
50684;BME280;36654;45.042;38.994;2022-10-16T03:02:23;101749.25;;;10.27;63.96
50684;BME280;36654;45.042;38.994;2022-10-16T03:04:49;101765.97;;;10.24;63.89
50684;BME280;36654;45.042;38.994;2022-10-16T03:07:14;101755.31;;;10.23;64.15
50684;BME280;36654;45.042;38.994;2022-10-16T03:09:40;101749.06;;;10.21;64.33
50684;BME280;36654;45.042;38.994;2022-10-16T03:12:06;101686.31;;;9.88;64.33
50684;BME280;36654;45.042;38.994;2022-10-16T03:14:32;101771.13;;;10.20;64.52
50684;BME280;36654;45.042;38.994;2022-10-16T03:16:57;101707.69;;;9.94;64.88
50684;BME280;36654;45.042;38.994;2022-10-16T03:19:23;101752.59;;;10.20;64.74
50684;BME280;36654;45.042;38.994;2022-10-16T03:21:49;101737.56;;;10.19;65.11
50684;BME280;36654;45.042;38.994;2022-10-16T03:24:14;101730.94;;;10.04;65.27
50684;BME280;36654;45.042;38.994;2022-10-16T03:26:40;101762.53;;;10.27;65.37
50684;BME280;36654;45.042;38.994;2022-10-16T03:29:06;101720.34;;;10.04;65.50
50684;BME280;36654;45.042;38.994;2022-10-16T03:31:32;101591.66;;;9.20;65.65
50684;BME280;36654;45.042;38.994;2022-10-16T03:33:58;101660.06;;;9.65;65.81
50684;BME280;36654;45.042;38.994;2022-10-16T03:36:23;101700.59;;;9.93;65.77
50684;BME280;36654;45.042;38.994;2022-10-16T03:38:49;101746.53;;;10.24;66.02
50684;BME280;36654;45.042;38.994;2022-10-16T03:41:15;101763.50;;;10.29;66.17
50684;BME280;36654;45.042;38.994;2022-10-16T03:43:41;101708.91;;;10.05;66.33
50684;BME280;36654;45.042;38.994;2022-10-16T03:46:06;101762.78;;;10.34;66.29
50684;BME280;36654;45.042;38.994;2022-10-16T03:48:32;101723.44;;;10.20;66.18
50684;BME280;36654;45.042;38.994;2022-10-16T03:50:58;101772.25;;;10.58;66.06
50684;BME280;36654;45.042;38.994;2022-10-16T03:53:24;101762.72;;;10.65;65.76
50684;BME280;36654;45.042;38.994;2022-10-16T03:55:49;101777.34;;;10.82;65.35
50684;BME280;36654;45.042;38.994;2022-10-16T03:58:15;101752.84;;;10.92;65.42
50684;BME280;36654;45.042;38.994;2022-10-16T04:00:45;101758.16;;;10.92;65.14
50684;BME280;36654;45.042;38.994;2022-10-16T04:03:11;101752.69;;;10.86;65.13
50684;BME280;36654;45.042;38.994;2022-10-16T04:05:37;101749.09;;;10.84;65.35
50684;BME280;36654;45.042;38.994;2022-10-16T04:08:03;101761.63;;;10.90;65.55
50684;BME280;36654;45.042;38.994;2022-10-16T04:10:29;101734.50;;;10.68;65.84
50684;BME280;36654;45.042;38.994;2022-10-16T04:12:55;101739.19;;;10.77;65.97
50684;BME280;36654;45.042;38.994;2022-10-16T04:15:22;101756.13;;;10.82;65.97
50684;BME280;36654;45.042;38.994;2022-10-16T04:17:48;101741.84;;;10.77;66.12
50684;BME280;36654;45.042;38.994;2022-10-16T04:20:14;101720.38;;;10.68;66.45
50684;BME280;36654;45.042;38.994;2022-10-16T04:22:39;101763.44;;;10.92;66.44
50684;BME280;36654;45.042;38.994;2022-10-16T04:25:05;101772.44;;;10.97;66.41
50684;BME280;36654;45.042;38.994;2022-10-16T04:27:31;101768.94;;;10.98;66.44
50684;BME280;36654;45.042;38.994;2022-10-16T04:30:00;101769.00;;;11.01;66.42
50684;BME280;36654;45.042;38.994;2022-10-16T04:32:26;101770.84;;;11.06;66.19
50684;BME280;36654;45.042;38.994;2022-10-16T04:34:52;101765.41;;;10.99;66.06
50684;BME280;36654;45.042;38.994;2022-10-16T04:37:18;101746.69;;;10.93;66.17
50684;BME280;36654;45.042;38.994;2022-10-16T04:39:44;101761.13;;;11.05;66.00
50684;BME280;36654;45.042;38.994;2022-10-16T04:42:10;101757.38;;;10.96;65.92
50684;BME280;36654;45.042;38.994;2022-10-16T04:44:36;101784.38;;;11.15;65.76
50684;BME280;36654;45.042;38.994;2022-10-16T04:47:02;101681.81;;;10.47;65.79
50684;BME280;36654;45.042;38.994;2022-10-16T04:49:28;101761.88;;;11.00;65.80
50684;BME280;36654;45.042;38.994;2022-10-16T04:51:53;101751.19;;;10.97;65.65
50684;BME280;36654;45.042;38.994;2022-10-16T04:54:19;101783.53;;;11.16;65.62
50684;BME280;36654;45.042;38.994;2022-10-16T04:56:45;101770.16;;;11.11;65.67
50684;BME280;36654;45.042;38.994;2022-10-16T04:59:15;101773.81;;;11.18;65.59
50684;BME280;36654;45.042;38.994;2022-10-16T05:01:41;101768.53;;;11.18;65.77
50684;BME280;36654;45.042;38.994;2022-10-16T05:04:07;101789.06;;;11.25;65.98
50684;BME280;36654;45.042;38.994;2022-10-16T05:06:33;101793.63;;;11.31;66.02
50684;BME280;36654;45.042;38.994;2022-10-16T05:08:58;101797.31;;;11.37;66.20
50684;BME280;36654;45.042;38.994;2022-10-16T05:11:24;101765.03;;;11.19;66.05
50684;BME280;36654;45.042;38.994;2022-10-16T05:13:49;101808.19;;;11.47;66.43
50684;BME280;36654;45.042;38.994;2022-10-16T05:16:15;101797.63;;;11.50;66.47
50684;BME280;36654;45.042;38.994;2022-10-16T05:18:41;101803.09;;;11.56;66.23
50684;BME280;36654;45.042;38.994;2022-10-16T05:21:06;101761.97;;;11.40;66.17
50684;BME280;36654;45.042;38.994;2022-10-16T05:23:32;101806.13;;;11.71;66.16
50684;BME280;36654;45.042;38.994;2022-10-16T05:25:59;101817.03;;;11.83;66.08
50684;BME280;36654;45.042;38.994;2022-10-16T05:28:26;101808.25;;;11.86;65.98
50684;BME280;36654;45.042;38.994;2022-10-16T05:30:53;101804.66;;;11.85;66.32
50684;BME280;36654;45.042;38.994;2022-10-16T05:33:24;101757.31;;;11.68;65.94
50684;BME280;36654;45.042;38.994;2022-10-16T05:35:50;101849.59;;;12.11;66.06
50684;BME280;36654;45.042;38.994;2022-10-16T05:38:17;101826.66;;;12.16;66.24
50684;BME280;36654;45.042;38.994;2022-10-16T05:40:42;101829.34;;;12.18;66.10
50684;BME280;36654;45.042;38.994;2022-10-16T05:43:08;101812.28;;;12.08;66.06
50684;BME280;36654;45.042;38.994;2022-10-16T05:45:34;101833.19;;;12.32;66.02
50684;BME280;36654;45.042;38.994;2022-10-16T05:48:00;101855.63;;;12.45;65.95
50684;BME280;36654;45.042;38.994;2022-10-16T05:50:27;101830.75;;;12.43;66.13
50684;BME280;36654;45.042;38.994;2022-10-16T05:52:52;101841.75;;;12.58;65.69
50684;BME280;36654;45.042;38.994;2022-10-16T05:55:18;101837.31;;;12.60;65.57
50684;BME280;36654;45.042;38.994;2022-10-16T05:57:44;101840.06;;;12.63;65.46
50684;BME280;36654;45.042;38.994;2022-10-16T06:00:10;101805.97;;;12.44;65.83
50684;BME280;36654;45.042;38.994;2022-10-16T06:02:35;101835.69;;;12.67;65.78
50684;BME280;36654;45.042;38.994;2022-10-16T06:05:01;101800.72;;;12.47;66.08
50684;BME280;36654;45.042;38.994;2022-10-16T06:07:27;101791.84;;;12.48;66.24
50684;BME280;36654;45.042;38.994;2022-10-16T06:09:53;101834.81;;;12.68;66.12
50684;BME280;36654;45.042;38.994;2022-10-16T06:12:19;101833.31;;;12.81;66.39
50684;BME280;36654;45.042;38.994;2022-10-16T06:14:46;101821.78;;;12.82;66.57
50684;BME280;36654;45.042;38.994;2022-10-16T06:17:14;101833.41;;;12.87;66.36
50684;BME280;36654;45.042;38.994;2022-10-16T06:19:40;101816.66;;;12.91;66.66
50684;BME280;36654;45.042;38.994;2022-10-16T06:22:08;101806.00;;;12.91;66.66
50684;BME280;36654;45.042;38.994;2022-10-16T06:24:36;101821.31;;;13.04;66.63
50684;BME280;36654;45.042;38.994;2022-10-16T06:32:37;101813.00;;;13.34;66.33
50684;BME280;36654;45.042;38.994;2022-10-16T06:35:12;101810.50;;;13.44;66.19
50684;BME280;36654;45.042;38.994;2022-10-16T06:37:38;101641.09;;;12.44;66.41
50684;BME280;36654;45.042;38.994;2022-10-16T06:40:08;101832.97;;;13.59;66.95
50684;BME280;36654;45.042;38.994;2022-10-16T06:45:15;101667.38;;;12.77;67.29
50684;BME280;36654;45.042;38.994;2022-10-16T06:47:45;101833.28;;;13.78;67.35
50684;BME280;36654;45.042;38.994;2022-10-16T06:50:16;101713.06;;;13.03;67.37
50684;BME280;36654;45.042;38.994;2022-10-16T06:52:45;101842.28;;;13.86;67.34
50684;BME280;36654;45.042;38.994;2022-10-16T06:55:14;101824.56;;;13.91;67.15
50684;BME280;36654;45.042;38.994;2022-10-16T06:57:46;101691.97;;;13.17;67.21
50684;BME280;36654;45.042;38.994;2022-10-16T07:00:15;101658.22;;;13.13;66.83
50684;BME280;36654;45.042;38.994;2022-10-16T07:02:51;101853.50;;;14.26;66.77
50684;BME280;36654;45.042;38.994;2022-10-16T07:05:30;101806.13;;;14.07;66.41
50684;BME280;36654;45.042;38.994;2022-10-16T07:07:56;101824.28;;;14.34;66.31
50684;BME280;36654;45.042;38.994;2022-10-16T07:10:25;101727.22;;;13.54;66.21
50684;BME280;36654;45.042;38.994;2022-10-16T07:12:54;101750.94;;;13.98;66.01
50684;BME280;36654;45.042;38.994;2022-10-16T07:15:28;101728.25;;;13.64;66.04
50684;BME280;36654;45.042;38.994;2022-10-16T07:17:54;101666.81;;;13.54;65.58
50684;BME280;36654;45.042;38.994;2022-10-16T07:20:29;101830.06;;;14.66;65.47
50684;BME280;36654;45.042;38.994;2022-10-16T07:25:28;101802.31;;;14.55;64.89
50684;BME280;36654;45.042;38.994;2022-10-16T07:27:54;101822.16;;;14.75;64.52
50684;BME280;36654;45.042;38.994;2022-10-16T07:30:21;101823.19;;;14.88;64.29
50684;BME280;36654;45.042;38.994;2022-10-16T07:32:48;101847.47;;;15.14;63.97
50684;BME280;36654;45.042;38.994;2022-10-16T07:35:15;101835.94;;;15.18;63.84
50684;BME280;36654;45.042;38.994;2022-10-16T07:37:46;101811.50;;;14.78;63.86
50684;BME280;36654;45.042;38.994;2022-10-16T07:40:36;101856.28;;;15.07;64.01
50684;BME280;36654;45.042;38.994;2022-10-16T07:43:09;101770.25;;;14.52;64.35
50684;BME280;36654;45.042;38.994;2022-10-16T07:45:34;101717.47;;;14.23;64.44
50684;BME280;36654;45.042;38.994;2022-10-16T07:48:06;101755.00;;;14.38;64.79
50684;BME280;36654;45.042;38.994;2022-10-16T07:50:35;101748.78;;;14.42;64.64
50684;BME280;36654;45.042;38.994;2022-10-16T07:53:01;101765.09;;;14.67;64.44
50684;BME280;36654;45.042;38.994;2022-10-16T07:55:27;101731.31;;;14.66;64.29
50684;BME280;36654;45.042;38.994;2022-10-16T07:58:01;101741.22;;;14.79;63.85
50684;BME280;36654;45.042;38.994;2022-10-16T08:00:29;101831.81;;;15.54;63.59
50684;BME280;36654;45.042;38.994;2022-10-16T08:02:58;101780.75;;;15.22;63.47
50684;BME280;36654;45.042;38.994;2022-10-16T08:05:32;101628.81;;;14.50;63.27
50684;BME280;36654;45.042;38.994;2022-10-16T08:08:01;101821.19;;;15.60;63.66
50684;BME280;36654;45.042;38.994;2022-10-16T08:10:28;101846.28;;;15.78;63.16
50684;BME280;36654;45.042;38.994;2022-10-16T08:12:54;101796.25;;;15.67;63.34
50684;BME280;36654;45.042;38.994;2022-10-16T08:15:22;101763.22;;;15.54;63.42
50684;BME280;36654;45.042;38.994;2022-10-16T08:17:56;101832.22;;;16.06;62.86
50684;BME280;36654;45.042;38.994;2022-10-16T08:20:22;101861.69;;;16.17;62.63
50684;BME280;36654;45.042;38.994;2022-10-16T08:22:48;101826.88;;;16.12;62.73
50684;BME280;36654;45.042;38.994;2022-10-16T08:25:14;101847.41;;;16.13;62.75
50684;BME280;36654;45.042;38.994;2022-10-16T08:27:41;101834.03;;;16.10;62.87
50684;BME280;36654;45.042;38.994;2022-10-16T08:30:07;101844.81;;;16.26;62.92
50684;BME280;36654;45.042;38.994;2022-10-16T08:32:33;101826.09;;;16.29;62.82
50684;BME280;36654;45.042;38.994;2022-10-16T08:34:59;101802.00;;;16.23;62.61
50684;BME280;36654;45.042;38.994;2022-10-16T08:37:29;101833.31;;;16.51;62.58
50684;BME280;36654;45.042;38.994;2022-10-16T08:39:55;101836.03;;;16.60;62.04
50684;BME280;36654;45.042;38.994;2022-10-16T08:50:37;101808.34;;;16.51;61.62
50684;BME280;36654;45.042;38.994;2022-10-16T08:53:05;101820.84;;;16.53;61.78
50684;BME280;36654;45.042;38.994;2022-10-16T08:58:31;101830.84;;;17.10;60.50
50684;BME280;36654;45.042;38.994;2022-10-16T09:01:00;101816.56;;;17.23;59.74
50684;BME280;36654;45.042;38.994;2022-10-16T09:20:19;101839.81;;;17.30;59.21
50684;BME280;36654;45.042;38.994;2022-10-16T09:22:48;101836.22;;;17.23;59.02
50684;BME280;36654;45.042;38.994;2022-10-16T09:25:19;101813.00;;;17.15;59.57
50684;BME280;36654;45.042;38.994;2022-10-16T09:27:48;101810.31;;;17.16;59.37
50684;BME280;36654;45.042;38.994;2022-10-16T09:30:19;101791.56;;;17.21;59.02
50684;BME280;36654;45.042;38.994;2022-10-16T09:32:48;101830.00;;;17.43;59.30
50684;BME280;36654;45.042;38.994;2022-10-16T09:35:22;101816.59;;;17.51;58.35
50684;BME280;36654;45.042;38.994;2022-10-16T09:37:54;101821.94;;;17.58;58.04
50684;BME280;36654;45.042;38.994;2022-10-16T09:43:02;101841.59;;;17.68;58.00
50684;BME280;36654;45.042;38.994;2022-10-16T09:47:54;101798.72;;;17.28;58.13
50684;BME280;36654;45.042;38.994;2022-10-16T09:50:27;101823.72;;;17.39;58.12
50684;BME280;36654;45.042;38.994;2022-10-16T09:53:04;101837.16;;;17.42;58.36
50684;BME280;36654;45.042;38.994;2022-10-16T09:55:31;101846.94;;;17.46;58.60
50684;BME280;36654;45.042;38.994;2022-10-16T09:57:57;101832.69;;;17.48;58.62
50684;BME280;36654;45.042;38.994;2022-10-16T10:00:24;101833.53;;;17.50;58.64
50684;BME280;36654;45.042;38.994;2022-10-16T10:02:50;101831.75;;;17.47;58.53
50684;BME280;36654;45.042;38.994;2022-10-16T10:05:28;101827.31;;;17.40;58.48
50684;BME280;36654;45.042;38.994;2022-10-16T10:07:57;101841.59;;;17.34;58.55
50684;BME280;36654;45.042;38.994;2022-10-16T10:10:32;101798.72;;;17.16;58.31
50684;BME280;36654;45.042;38.994;2022-10-16T10:12:58;101841.63;;;17.37;58.77
50684;BME280;36654;45.042;38.994;2022-10-16T10:15:25;101828.19;;;17.33;58.57
50684;BME280;36654;45.042;38.994;2022-10-16T10:17:57;101834.47;;;17.30;58.34
50684;BME280;36654;45.042;38.994;2022-10-16T10:20:29;101830.88;;;17.37;58.49
50684;BME280;36654;45.042;38.994;2022-10-16T10:22:56;101828.19;;;17.36;58.68
50684;BME280;36654;45.042;38.994;2022-10-16T10:25:44;101779.94;;;17.16;58.76
50684;BME280;36654;45.042;38.994;2022-10-16T10:33:58;101789.78;;;17.20;58.34
50684;BME280;36654;45.042;38.994;2022-10-16T10:36:36;101833.56;;;17.39;57.86
50684;BME280;36654;45.042;38.994;2022-10-16T10:39:15;101812.09;;;17.27;58.25
50684;BME280;36654;45.042;38.994;2022-10-16T10:42:12;101805.88;;;17.23;58.20
50684;BME280;36654;45.042;38.994;2022-10-16T10:50:33;101818.38;;;17.55;57.76
50684;BME280;36654;45.042;38.994;2022-10-16T10:55:54;101844.28;;;17.62;57.29
50684;BME280;36654;45.042;38.994;2022-10-16T10:58:36;101859.50;;;17.60;57.34
50684;BME280;36654;45.042;38.994;2022-10-16T11:01:33;101794.25;;;17.33;57.19
50684;BME280;36654;45.042;38.994;2022-10-16T11:07:02;101828.22;;;17.53;57.61
50684;BME280;36654;45.042;38.994;2022-10-16T11:09:51;101816.56;;;17.54;57.47
50684;BME280;36654;45.042;38.994;2022-10-16T11:12:23;101815.69;;;17.49;57.32
50684;BME280;36654;45.042;38.994;2022-10-16T11:15:02;101798.72;;;17.31;56.94
50684;BME280;36654;45.042;38.994;2022-10-16T11:17:41;101804.06;;;17.50;56.93
50684;BME280;36654;45.042;38.994;2022-10-16T11:20:20;101802.28;;;17.36;57.16
50684;BME280;36654;45.042;38.994;2022-10-16T11:25:35;101870.19;;;17.57;56.97
50684;BME280;36654;45.042;38.994;2022-10-16T11:28:07;101823.72;;;17.58;57.18
50684;BME280;36654;45.042;38.994;2022-10-16T11:31:08;101814.78;;;17.56;57.21
50684;BME280;36654;45.042;38.994;2022-10-16T11:36:35;101856.81;;;17.67;57.21
50684;BME280;36654;45.042;38.994;2022-10-16T11:39:31;101854.13;;;17.67;57.14
50684;BME280;36654;45.042;38.994;2022-10-16T11:47:44;101858.56;;;17.64;57.26
50684;BME280;36654;45.042;38.994;2022-10-16T11:52:51;101853.22;;;17.62;57.42
50684;BME280;36654;45.042;38.994;2022-10-16T11:55:37;101847.84;;;17.49;57.32
50684;BME280;36654;45.042;38.994;2022-10-16T11:58:17;101855.91;;;17.55;57.42
50684;BME280;36654;45.042;38.994;2022-10-16T12:03:36;101855.88;;;17.36;57.45
50684;BME280;36654;45.042;38.994;2022-10-16T12:06:25;101858.59;;;17.50;57.47
50684;BME280;36654;45.042;38.994;2022-10-16T12:08:54;101870.19;;;17.57;57.81
50684;BME280;36654;45.042;38.994;2022-10-16T12:11:33;101823.72;;;17.45;57.73
50684;BME280;36654;45.042;38.994;2022-10-16T12:16:58;101872.00;;;17.61;57.59
50684;BME280;36654;45.042;38.994;2022-10-16T12:19:29;101861.25;;;17.61;57.75
50684;BME280;36654;45.042;38.994;2022-10-16T12:22:00;101843.38;;;17.52;57.43
50684;BME280;36654;45.042;38.994;2022-10-16T12:24:42;101839.81;;;17.36;57.75
50684;BME280;36654;45.042;38.994;2022-10-16T12:27:32;101866.63;;;17.55;57.44
50684;BME280;36654;45.042;38.994;2022-10-16T12:30:04;101876.44;;;17.51;57.68
50684;BME280;36654;45.042;38.994;2022-10-16T12:32:33;101884.50;;;17.48;57.77
50684;BME280;36654;45.042;38.994;2022-10-16T12:35:03;101895.19;;;17.50;57.88
50684;BME280;36654;45.042;38.994;2022-10-16T12:37:35;101873.75;;;17.46;57.95
50684;BME280;36654;45.042;38.994;2022-10-16T12:40:23;101869.28;;;17.25;57.76
50684;BME280;36654;45.042;38.994;2022-10-16T12:42:51;101875.53;;;17.23;57.75
50684;BME280;36654;45.042;38.994;2022-10-16T12:45:33;101902.38;;;17.40;58.19
50684;BME280;36654;45.042;38.994;2022-10-16T12:48:01;101875.53;;;17.31;58.11
50684;BME280;36654;45.042;38.994;2022-10-16T12:50:34;101889.81;;;17.34;58.45
50684;BME280;36654;45.042;38.994;2022-10-16T12:53:01;101905.91;;;17.34;58.70
50684;BME280;36654;45.042;38.994;2022-10-16T12:55:34;101896.97;;;17.28;58.63
50684;BME280;36654;45.042;38.994;2022-10-16T13:01:02;101930.91;;;17.24;58.95
50684;BME280;36654;45.042;38.994;2022-10-16T13:06:49;101909.47;;;17.21;59.30
50684;BME280;36654;45.042;38.994;2022-10-16T13:28:06;101881.63;;;16.77;59.59
50684;BME280;36654;45.042;38.994;2022-10-16T13:30:52;101925.50;;;17.02;59.53
50684;BME280;36654;45.042;38.994;2022-10-16T13:35:54;101928.16;;;17.01;59.52
50684;BME280;36654;45.042;38.994;2022-10-16T13:38:23;101929.94;;;17.00;59.40
50684;BME280;36654;45.042;38.994;2022-10-16T13:40:55;101944.22;;;16.99;59.40
50684;BME280;36654;45.042;38.994;2022-10-16T13:43:27;101935.25;;;16.90;59.04
50684;BME280;36654;45.042;38.994;2022-10-16T13:46:20;101956.66;;;16.90;58.90
50684;BME280;36654;45.042;38.994;2022-10-16T13:48:55;101932.53;;;16.82;58.55
50684;BME280;36654;45.042;38.994;2022-10-16T13:51:21;101928.03;;;16.76;58.38
50684;BME280;36654;45.042;38.994;2022-10-16T13:53:52;101942.28;;;16.77;58.05
50684;BME280;36654;45.042;38.994;2022-10-16T13:56:20;101942.28;;;16.71;57.80
50684;BME280;36654;45.042;38.994;2022-10-16T13:59:01;101908.25;;;16.50;57.60
50684;BME280;36654;45.042;38.994;2022-10-16T14:01:35;101918.03;;;16.40;57.42
50684;BME280;36654;45.042;38.994;2022-10-16T14:04:08;101932.34;;;16.48;57.86
50684;BME280;36654;45.042;38.994;2022-10-16T14:06:35;101939.47;;;16.52;57.71
50684;BME280;36654;45.042;38.994;2022-10-16T14:09:08;101934.13;;;16.49;57.73
50684;BME280;36654;45.042;38.994;2022-10-16T14:11:59;101904.56;;;16.32;57.93
50684;BME280;36654;45.042;38.994;2022-10-16T14:14:29;101951.94;;;16.47;57.99
50684;BME280;36654;45.042;38.994;2022-10-16T14:39:22;101974.69;;;15.90;60.00
50684;BME280;36654;45.042;38.994;2022-10-16T14:41:50;101961.34;;;15.90;60.24
50684;BME280;36654;45.042;38.994;2022-10-16T14:44:23;101974.78;;;15.96;60.35
50684;BME280;36654;45.042;38.994;2022-10-16T14:46:52;101965.00;;;15.98;60.68
50684;BME280;36654;45.042;38.994;2022-10-16T14:49:19;101967.66;;;15.98;60.71
50684;BME280;36654;45.042;38.994;2022-10-16T14:51:46;101987.31;;;16.00;60.90
50684;BME280;36654;45.042;38.994;2022-10-16T14:54:16;101899.63;;;15.65;61.23
50684;BME280;36654;45.042;38.994;2022-10-16T14:56:53;101948.84;;;15.89;61.28
50684;BME280;36654;45.042;38.994;2022-10-16T14:59:27;101968.59;;;16.00;61.59
50684;BME280;36654;45.042;38.994;2022-10-16T15:01:54;101995.28;;;15.97;61.64
50684;BME280;36654;45.042;38.994;2022-10-16T15:04:20;101979.22;;;15.95;61.66
50684;BME280;36654;45.042;38.994;2022-10-16T15:06:45;101999.75;;;15.95;61.91
50684;BME280;36654;45.042;38.994;2022-10-16T15:09:11;101972.94;;;15.92;62.13
50684;BME280;36654;45.042;38.994;2022-10-16T15:11:37;101991.66;;;15.90;61.92
50684;BME280;36654;45.042;38.994;2022-10-16T15:14:03;101997.91;;;15.91;61.86
50684;BME280;36654;45.042;38.994;2022-10-16T15:16:29;101976.41;;;15.79;61.52
50684;BME280;36654;45.042;38.994;2022-10-16T15:18:56;101969.28;;;15.79;61.48
50684;BME280;36654;45.042;38.994;2022-10-16T15:21:25;101992.56;;;15.91;61.23
50684;BME280;36654;45.042;38.994;2022-10-16T15:23:52;101991.63;;;15.87;61.15
50684;BME280;36654;45.042;38.994;2022-10-16T15:26:18;102004.13;;;15.90;61.10